»·PEaware :: N9633L KDVT-KPSP

N9633L :: KDVT-KPSP

FLIGHT INFORMATION

Flight Status: Arrived
Operator: Privately registered:
United States
More flights under this callsign
Pilot: John P. (31881)
Aircraft: BEECH AIRCRAFT SUPER KING AIR 350
(B350)
More flights by this aircraft type
Origin: KDVT Phoenix Deer Valley
United States
Destination: KPSP Palm Springs Intl
United States
More flights between these airports :: More routes between these airports
Route: DVT1 PXR BXK V16 PSP
File this flight plan on PilotEdge
Remarks:
Altitude:
(Current/Filed)
26,000ft
Speed:
(Current/Filed)
306kts
Departed: 05-Jan-21 04:06 PM
Arrived: 05-Jan-21 05:06 PM
Distance/Time
Traveled:
6494nm/1:00
Distance/Time
To Go:
Arrived

Flight Plot

Page will automatically refresh every two minutes.

Flight plan parsing failed; only flown route is shown


Map Options




Map Legend


Flown Route
Filed Route
Departure Airport
Arrival Airport
Navaid (VOR, NDB)
Fix

Horizontal Profiles

Position Reports

Time Latitude Longitude Heading Altitude Ground
Speed
05-Jan-21 16:00 33.687156 -112.069539 13 1482ft 0kts
05-Jan-21 16:01 33.687156 -112.069539 13 1482ft 0kts
05-Jan-21 16:02 33.687156 -112.069539 13 1482ft 0kts
05-Jan-21 16:03 33.687156 -112.069539 13 1482ft 0kts
05-Jan-21 16:04 33.687156 -112.069539 13 1482ft 0kts
05-Jan-21 16:05 33.687775 -112.069410 6 1481ft 12kts
05-Jan-21 16:06 33.687227 -112.088784 265 1519ft 134kts
05-Jan-21 16:07 33.705037 -112.101132 63 2381ft 151kts
05-Jan-21 16:08 33.731096 -112.068953 22 4606ft 145kts
05-Jan-21 16:09 33.772299 -112.068476 340 6625ft 153kts
05-Jan-21 16:10 33.760019 -112.092955 142 8580ft 162kts
05-Jan-21 16:11 33.723440 -112.057314 159 10278ft 178kts
05-Jan-21 16:12 33.675003 -112.040478 171 12115ft 185kts
05-Jan-21 16:13 33.624660 -112.025741 171 13982ft 190kts
05-Jan-21 16:13 33.581560 -112.013446 182 15560ft 189kts
05-Jan-21 16:15 33.559809 -112.061869 264 17800ft 154kts
05-Jan-21 16:16 33.552792 -112.112584 263 19664ft 154kts
05-Jan-21 16:16 33.546927 -112.155629 263 20918ft 172kts
05-Jan-21 16:18 33.535717 -112.237064 262 21111ft 246kts
05-Jan-21 16:18 33.525956 -112.307817 262 21117ft 269kts
05-Jan-21 16:19 33.513599 -112.396994 262 21095ft 280kts
05-Jan-21 16:20 33.500637 -112.490154 262 21087ft 284kts
05-Jan-21 16:21 33.487505 -112.583821 262 21085ft 285kts
05-Jan-21 16:22 33.474306 -112.677667 262 21087ft 287kts
05-Jan-21 16:23 33.460864 -112.772483 262 21085ft 289kts
05-Jan-21 16:24 33.456740 -112.867972 278 21088ft 288kts
05-Jan-21 16:25 33.464690 -112.963673 276 21187ft 284kts
05-Jan-21 16:26 33.470801 -113.039704 275 24829ft 188kts
05-Jan-21 16:27 33.475937 -113.103953 274 26018ft 221kts
05-Jan-21 16:28 33.482514 -113.187303 275 26089ft 276kts
05-Jan-21 16:29 33.490064 -113.284007 275 26091ft 299kts
05-Jan-21 16:30 33.497752 -113.383364 275 26094ft 300kts
05-Jan-21 16:31 33.505421 -113.483521 275 26097ft 302kts
05-Jan-21 16:32 33.513020 -113.583706 276 26098ft 302kts
05-Jan-21 16:33 33.520556 -113.684203 276 26100ft 303kts
05-Jan-21 16:34 33.528052 -113.785345 276 26103ft 305kts
05-Jan-21 16:35 33.535483 -113.886796 276 26103ft 306kts
05-Jan-21 16:36 33.542860 -113.988574 277 26105ft 307kts
05-Jan-21 16:37 33.550149 -114.090507 277 26110ft 308kts
05-Jan-21 16:38 33.557446 -114.193611 277 26109ft 309kts
05-Jan-21 16:39 33.564636 -114.296387 277 26111ft 310kts
05-Jan-21 16:40 33.571809 -114.400090 277 26125ft 312kts
05-Jan-21 16:41 33.578870 -114.503833 277 26116ft 313kts
05-Jan-21 16:42 33.585905 -114.608139 278 26116ft 314kts
05-Jan-21 16:43 33.592284 -114.703875 278 26118ft 316kts
05-Jan-21 16:44 33.604264 -114.808012 286 25928ft 316kts
05-Jan-21 16:45 33.621803 -114.911960 286 24925ft 319kts
05-Jan-21 16:46 33.639433 -115.015908 286 24374ft 316kts
05-Jan-21 16:47 33.656779 -115.118643 286 23280ft 311kts
05-Jan-21 16:48 33.673664 -115.219179 285 22160ft 305kts
05-Jan-21 16:49 33.690163 -115.317962 285 21033ft 299kts
05-Jan-21 16:50 33.706279 -115.414948 285 19865ft 293kts
05-Jan-21 16:51 33.722038 -115.510187 284 18579ft 288kts
05-Jan-21 16:52 33.737513 -115.604263 284 17132ft 285kts
05-Jan-21 16:53 33.752744 -115.697455 283 15636ft 284kts
05-Jan-21 16:54 33.767855 -115.790062 283 14161ft 281kts
05-Jan-21 16:55 33.782644 -115.881359 283 12573ft 274kts
05-Jan-21 16:56 33.796901 -115.969536 283 10791ft 264kts
05-Jan-21 16:57 33.809803 -116.054453 272 9025ft 256kts
05-Jan-21 16:58 33.788467 -116.136031 252 7396ft 250kts
05-Jan-21 16:59 33.766618 -116.208147 251 6751ft 232kts
05-Jan-21 17:00 33.744960 -116.281689 252 5262ft 221kts
05-Jan-21 17:01 33.754138 -116.343963 291 4053ft 172kts
05-Jan-21 17:02 33.766388 -116.399757 280 2678ft 174kts
05-Jan-21 17:03 33.775880 -116.452309 294 1595ft 166kts
05-Jan-21 17:04 33.801578 -116.482785 323 1036ft 122kts
05-Jan-21 17:05 33.825792 -116.504178 322 422ft 33kts
05-Jan-21 17:06 33.828733 -116.508058 250 438ft 0kts
05-Jan-21 17:07 33.827181 -116.507480 142 435ft 27kts
05-Jan-21 17:08 33.825701 -116.508028 359 433ft 0kts
05-Jan-21 17:09 0.000408 0.013975 0 5ft 0kts
05-Jan-21 17:10 0.000408 0.013975 0 5ft 0kts
05-Jan-21 17:11 0.000408 0.013975 0 5ft 0kts
05-Jan-21 17:12 0.000408 0.013975 0 5ft 0kts
05-Jan-21 17:13 0.000408 0.013975 0 5ft 0kts
05-Jan-21 17:14 0.000408 0.013975 0 5ft 0kts
05-Jan-21 17:15 0.000408 0.013975 0 5ft 0kts
05-Jan-21 17:16 0.000408 0.013975 0 5ft 0kts
05-Jan-21 17:17 0.000408 0.013975 0 5ft 0kts
05-Jan-21 17:18 0.000408 0.013975 0 5ft 0kts
05-Jan-21 17:19 0.000408 0.013975 0 5ft 0kts
05-Jan-21 17:20 0.000408 0.013975 0 5ft 0kts

Navigation Log

Ident Type
Flight plan parsing failed, navigation log unavailable